Aérodrome :
LOGIN :

S'inscrire | Disclaimer

   EN    FR    IT 

 










Légende :    VFR   VFR Marginal   IFR   IFR Intensif   IFR Très Intensif
Visi : 
Plafond : 
>= 8 km
>= 3000ft
5 à 8 km
1000 à 3000 ft
1500m à 5 km
500 à 1000 ft
800 à 1500m
200 à 500 ft
< 800m
< 200 ft
Symboles :   Orages  Brouillard  Fortes neiges  Fortes précipitations  Vent > 20 kt
SIGMETs :   Divers  Orages  Givrage  Turbulence  Onde Orograph.  Cendres Volcan.






- Altitude de l'aérodrome : 1339 ft


ETHN - Niederstetten

DERNIER METAR :
  • 181236Z 33011KT 9999 SHRAGS FEW008 BKN015CB 06/02 Q1016 WHT BLU+ TEMPO GRN

METARs EXPIRÉS :
  • 181220Z 33007KT 9999 -SHRA FEW008 BKN015CB 08/01 Q1016 WHT BLU+ TEMPO GRN
  • 181120Z 35007KT 9999 VCSH BKN015CB 05/01 Q1015 WHT BLU+ TEMPO GRN
  • 181020Z 33005KT 9999 VCSH BKN010CB 06/03 Q1015 GRN BLU TEMPO GRN
  • 180951Z 01005KT 9999 BKN008 BKN020 05/03 Q1015 GRN GRN BECMG BLU
  • 180920Z 35004KT 9999 BKN004 03/02 Q1015 YLO YLO BECMG GRN
  • 180820Z 31007KT 9999 BKN004 03/01 Q1014 YLO YLO BECMG GRN

TAF TAF ETHN
Valide du 18 à 11h jusqu'au 18 à 20h UTC


181023Z 1811/1820 33005KT 9999 NSW SCT020
TEMPO 1811/1817 35012KT 4000 SHRAGS BKN010CB
PROB30 1811/1815 VRB15KT 1500 TSGS BKN006CB
BECMG 1817/1819 26007KT 9999 NSW FEW040 SCT180



MET'MAP, la Météo Aéronautique d'un coup d'oeil ! - Copyright ORBIFLY Décembre 2007 - Disclaimer

ORBIFLY MET'MAP TEAM :

Programmation & Développement : Alexandra Zaïnal
Sur une idée originale de : Baudouin d'Aumeries
Soutien technique & logistique : Manuel Goepfert
Assistance : Marc-Olivier Méhu




SOURCES & CREDITS :

   NOAA